Baltimore, Maryland
Traffic Map
Current Weather Conditions
Baltimore, Maryland
Overcast
Overcast
72°
Feels Like: 72°
Wind Chill: 72° Ceiling: 3200
Heat Index: 72° Visibility: 10mi
Dew Point: 63° Wind: 3mph
Humidity: 73% Direction: ° ()
Pressure: 30.23in Gusts: 0mph
Raw Report DataKBWI 301354Z VRB03KT 10SM BKN032 OVC047 22/17 A3023 RMK AO2 SLP236 T02220172
Traffic Incident Summary
Active as of:
Severity:
Category:
InformationThere was an issue retrieving the traffic information for this location. Please try a different location or try again shortly.
Advertisements
Track Severe Weather on mobile